createdAt,value
2018-03-02T00:00:19.840Z,12.65
2018-03-02T00:02:47.406Z,11.43
2018-03-02T00:05:14.991Z,11.43
2018-03-02T00:07:42.552Z,12.73
2018-03-02T00:10:10.180Z,12.95
2018-03-02T00:12:37.741Z,9.85
2018-03-02T00:15:05.270Z,12.40
2018-03-02T00:17:33.669Z,11.00
2018-03-02T00:20:01.347Z,9.43
2018-03-02T00:22:29.045Z,13.35
2018-03-02T00:24:56.638Z,13.65
2018-03-02T00:27:24.362Z,11.07
2018-03-02T00:29:51.927Z,12.50
2018-03-02T00:32:19.496Z,10.27
2018-03-02T00:34:47.061Z,12.02
2018-03-02T00:37:14.708Z,12.85
2018-03-02T00:39:42.295Z,12.75
2018-03-02T00:42:10.698Z,11.27
2018-03-02T00:44:38.250Z,13.48
2018-03-02T00:47:07.393Z,13.85
2018-03-02T00:49:34.917Z,15.10
2018-03-02T00:52:02.489Z,14.27
2018-03-02T00:54:30.284Z,11.30
2018-03-02T00:56:57.842Z,14.80
2018-03-02T00:59:25.381Z,14.55
2018-03-02T01:01:52.922Z,12.23
2018-03-02T01:04:20.476Z,13.45
2018-03-02T01:06:48.044Z,14.25
2018-03-02T01:09:15.623Z,12.93
2018-03-02T01:11:43.234Z,12.80
2018-03-02T01:14:10.812Z,13.52
2018-03-02T01:16:39.204Z,14.02
2018-03-02T01:19:06.747Z,12.05
2018-03-02T01:21:35.126Z,15.15
2018-03-02T01:24:03.490Z,13.90
2018-03-02T01:26:31.877Z,14.87
2018-03-02T01:29:00.933Z,12.32
2018-03-02T01:31:28.570Z,13.98
2018-03-02T01:33:56.153Z,17.67
2018-03-02T01:36:23.723Z,15.90
2018-03-02T01:38:51.285Z,14.65
2018-03-02T01:41:18.869Z,15.88
2018-03-02T01:43:47.213Z,16.50
2018-03-02T01:46:14.805Z,15.68
2018-03-02T01:48:42.422Z,12.68
2018-03-02T01:51:09.939Z,15.35
2018-03-02T01:53:38.515Z,13.43
2018-03-02T01:56:06.823Z,15.23
2018-03-02T01:58:34.652Z,13.82
2018-03-02T02:01:03.004Z,15.57
2018-03-02T02:03:30.598Z,13.00
2018-03-02T02:05:58.196Z,13.68
2018-03-02T02:08:25.746Z,13.52
2018-03-02T02:10:53.320Z,16.02
2018-03-02T02:13:21.769Z,15.80
2018-03-02T02:15:50.935Z,17.00
2018-03-02T02:18:18.520Z,15.02
2018-03-02T02:20:46.816Z,16.70
2018-03-02T02:23:14.349Z,12.98
2018-03-02T02:25:42.647Z,18.58
2018-03-02T02:28:10.857Z,13.77
2018-03-02T02:30:38.442Z,18.58
2018-03-02T02:33:06.083Z,16.45
2018-03-02T02:35:34.389Z,10.48
2018-03-02T02:38:01.967Z,17.90
2018-03-02T02:40:30.293Z,16.98
2018-03-02T02:42:57.905Z,17.55
2018-03-02T02:45:25.547Z,13.68
2018-03-02T02:47:53.101Z,19.52
2018-03-02T02:50:20.713Z,16.12
2018-03-02T02:52:48.255Z,16.30
2018-03-02T02:55:16.704Z,17.33
2018-03-02T02:57:44.218Z,18.37
2018-03-02T03:00:11.779Z,14.87
2018-03-02T03:02:39.324Z,17.12
2018-03-02T03:05:06.924Z,17.98
2018-03-02T03:07:35.941Z,20.27
2018-03-02T03:10:03.507Z,12.52
2018-03-02T03:12:31.836Z,17.45
2018-03-02T03:14:59.606Z,18.10
2018-03-02T03:17:27.140Z,19.52
2018-03-02T03:19:54.695Z,15.45
2018-03-02T03:22:22.208Z,18.65
2018-03-02T03:24:49.779Z,15.40
2018-03-02T03:27:17.375Z,19.55
2018-03-02T03:29:44.960Z,17.58
2018-03-02T03:32:12.588Z,20.67
2018-03-02T03:34:40.135Z,17.10
2018-03-02T03:37:08.486Z,18.25
2018-03-02T03:39:36.077Z,18.37
2018-03-02T03:42:03.992Z,21.40
2018-03-02T03:44:31.590Z,21.42
2018-03-02T03:46:59.949Z,16.08
2018-03-02T03:49:27.505Z,18.65
2018-03-02T03:51:55.115Z,17.83
2018-03-02T03:54:22.709Z,15.07
2018-03-02T03:56:50.316Z,17.92
2018-03-02T03:59:17.902Z,22.40
2018-03-02T04:01:45.484Z,15.20
2018-03-02T04:04:13.654Z,11.40
2018-03-02T04:06:41.308Z,16.85
2018-03-02T04:09:09.892Z,14.13
2018-03-02T04:11:38.256Z,17.85
2018-03-02T04:14:05.851Z,9.98
2018-03-02T04:16:33.452Z,22.15
2018-03-02T04:19:01.072Z,20.08
2018-03-02T04:21:29.469Z,21.23
2018-03-02T04:23:57.017Z,21.20
2018-03-02T04:26:24.614Z,19.65
2018-03-02T04:28:52.967Z,16.55
2018-03-02T04:31:20.542Z,21.02
2018-03-02T04:33:48.136Z,19.65
2018-03-02T04:36:15.701Z,19.65
2018-03-02T04:38:43.346Z,16.90
2018-03-02T04:41:12.307Z,20.50
2018-03-02T04:43:39.860Z,19.02
2018-03-02T04:46:07.897Z,11.48
2018-03-02T04:48:35.482Z,19.90
2018-03-02T04:51:03.030Z,18.27
2018-03-02T04:53:30.573Z,15.40
2018-03-02T04:55:58.153Z,21.55
2018-03-02T04:58:25.773Z,18.58
2018-03-02T05:00:53.543Z,16.10
2018-03-02T05:03:21.150Z,19.45
2018-03-02T05:05:48.710Z,19.70
2018-03-02T05:08:17.096Z,20.20
2018-03-02T05:10:44.738Z,19.45
2018-03-02T05:13:12.348Z,20.05
2018-03-02T05:15:39.913Z,21.30
2018-03-02T05:18:08.967Z,19.17
2018-03-02T05:20:36.553Z,17.67
2018-03-02T05:23:04.149Z,21.83
2018-03-02T05:25:31.718Z,20.23
2018-03-02T05:27:59.371Z,21.00
2018-03-02T05:30:26.935Z,20.83
2018-03-02T05:32:54.448Z,23.27
2018-03-02T05:35:22.002Z,17.73
2018-03-02T05:37:49.533Z,14.23
2018-03-02T05:40:17.081Z,16.85
2018-03-02T05:42:44.718Z,13.13
2018-03-02T05:45:12.419Z,20.52
2018-03-02T05:47:40.000Z,21.30
2018-03-02T05:50:07.646Z,15.75
2018-03-02T05:52:35.246Z,20.48
2018-03-02T05:55:03.609Z,15.75
2018-03-02T05:57:32.217Z,16.85
2018-03-02T06:00:00.625Z,20.12
2018-03-02T06:02:28.224Z,17.58
2018-03-02T06:04:55.763Z,16.58
2018-03-02T06:07:23.311Z,14.30
2018-03-02T06:09:50.907Z,16.02
2018-03-02T06:12:18.479Z,21.25
2018-03-02T06:14:46.104Z,17.15
2018-03-02T06:17:14.550Z,20.60
2018-03-02T06:19:42.089Z,18.98
2018-03-02T06:22:10.368Z,19.95
2018-03-02T06:24:38.686Z,21.55
2018-03-02T06:27:06.603Z,19.80
2018-03-02T06:29:34.532Z,17.08
2018-03-02T06:32:02.242Z,22.27
2018-03-02T06:34:29.811Z,23.27
2018-03-02T06:36:57.980Z,20.48
2018-03-02T06:39:25.552Z,14.43
2018-03-02T06:41:53.194Z,14.35
2018-03-02T06:44:20.868Z,19.70
2018-03-02T06:46:49.206Z,14.30
2018-03-02T06:49:17.563Z,22.37
2018-03-02T06:51:45.837Z,18.02
2018-03-02T06:54:14.105Z,20.02
2018-03-02T06:56:41.664Z,16.98
2018-03-02T06:59:09.242Z,16.62
2018-03-02T07:01:37.602Z,21.85
2018-03-02T07:04:05.211Z,17.42
2018-03-02T07:06:32.814Z,21.75
2018-03-02T07:09:00.391Z,18.00
2018-03-02T07:11:27.990Z,21.05
2018-03-02T07:13:55.576Z,17.85
2018-03-02T07:16:23.923Z,16.52
2018-03-02T07:18:51.513Z,17.27
2018-03-02T07:21:19.349Z,18.20
2018-03-02T07:23:47.075Z,17.87
2018-03-02T07:26:15.467Z,18.35
2018-03-02T07:28:43.030Z,22.13
2018-03-02T07:31:10.775Z,18.55
2018-03-02T07:33:38.724Z,14.05
2018-03-02T07:36:07.117Z,21.77
2018-03-02T07:38:34.759Z,23.65
2018-03-02T07:41:03.137Z,20.58
2018-03-02T07:43:31.499Z,23.20
2018-03-02T07:45:59.902Z,21.15
2018-03-02T07:48:28.264Z,22.92
2018-03-02T07:50:56.658Z,25.83
2018-03-02T07:53:24.338Z,22.35
2018-03-02T07:55:51.975Z,18.67
2018-03-02T07:58:20.290Z,24.15
2018-03-02T08:00:47.852Z,22.52
2018-03-02T08:03:17.337Z,22.58
2018-03-02T08:05:45.099Z,21.05
2018-03-02T08:08:13.393Z,17.60
2018-03-02T08:10:40.928Z,26.33
2018-03-02T08:13:09.313Z,19.17
2018-03-02T08:15:36.851Z,20.60
2018-03-02T08:18:04.501Z,21.87
2018-03-02T08:20:32.125Z,23.35
2018-03-02T08:22:59.678Z,20.20
2018-03-02T08:25:27.285Z,18.17
2018-03-02T08:27:55.084Z,20.42
2018-03-02T08:30:23.389Z,22.25
2018-03-02T08:32:50.972Z,23.33
2018-03-02T08:35:18.612Z,23.45
2018-03-02T08:37:46.207Z,22.70
2018-03-02T08:40:13.772Z,22.23
2018-03-02T08:42:41.389Z,20.80
2018-03-02T08:45:08.945Z,21.55
2018-03-02T08:47:37.355Z,24.45
2018-03-02T08:50:04.910Z,24.65
2018-03-02T08:52:32.599Z,23.23
2018-03-02T08:55:00.216Z,21.25
2018-03-02T08:57:27.825Z,17.35
2018-03-02T08:59:56.159Z,20.42
2018-03-02T09:02:23.820Z,22.15
2018-03-02T09:04:51.447Z,21.52
2018-03-02T09:07:19.052Z,22.67
2018-03-02T09:09:46.623Z,20.70
2018-03-02T09:12:14.493Z,25.00
2018-03-02T09:14:42.102Z,24.90
2018-03-02T09:17:10.534Z,20.77
2018-03-02T09:19:38.705Z,22.70
2018-03-02T09:22:06.289Z,24.58
2018-03-02T09:24:34.623Z,21.87
2018-03-02T09:27:02.704Z,18.62
2018-03-02T09:29:30.219Z,24.23
2018-03-02T09:31:57.796Z,21.83
2018-03-02T09:34:25.322Z,22.33
2018-03-02T09:36:53.669Z,22.58
2018-03-02T09:39:21.300Z,23.58
2018-03-02T09:41:48.958Z,23.90
2018-03-02T09:44:16.540Z,20.90
2018-03-02T09:46:44.116Z,22.52
2018-03-02T09:49:11.711Z,17.62
2018-03-02T09:51:39.493Z,22.48
2018-03-02T09:54:07.050Z,24.70
2018-03-02T09:56:34.610Z,23.38
2018-03-02T09:59:02.159Z,24.52
2018-03-02T10:01:30.468Z,27.60
2018-03-02T10:03:58.060Z,24.50
2018-03-02T10:06:25.625Z,23.75
2018-03-02T10:08:53.173Z,24.60
2018-03-02T10:11:20.754Z,23.20
2018-03-02T10:13:49.128Z,26.20
2018-03-02T10:16:16.720Z,25.70
2018-03-02T10:18:44.314Z,24.08
2018-03-02T10:21:11.851Z,21.42
2018-03-02T10:23:39.410Z,25.35
2018-03-02T10:26:06.957Z,15.93
2018-03-02T10:28:34.532Z,25.08
2018-03-02T10:31:02.180Z,27.55
2018-03-02T10:33:29.799Z,23.92
2018-03-02T10:35:57.329Z,23.27
2018-03-02T10:38:24.990Z,23.38
2018-03-02T10:40:52.588Z,24.17
2018-03-02T10:43:20.917Z,28.10
2018-03-02T10:45:48.465Z,24.87
2018-03-02T10:48:16.887Z,25.75
2018-03-02T10:50:44.789Z,19.75
2018-03-02T10:53:13.101Z,22.10
2018-03-02T10:55:40.720Z,25.58
2018-03-02T10:58:08.953Z,27.85
2018-03-02T11:00:42.328Z,25.35
2018-03-02T11:03:15.650Z,23.25
2018-03-02T11:05:46.110Z,25.08
2018-03-02T11:08:13.690Z,21.30
2018-03-02T11:10:42.006Z,24.25
2018-03-02T11:13:09.645Z,23.52
2018-03-02T11:15:37.271Z,22.50
2018-03-02T11:18:04.832Z,23.83
2018-03-02T11:20:32.421Z,24.20
2018-03-02T11:22:59.979Z,24.92
2018-03-02T11:25:27.592Z,19.80
2018-03-02T11:27:55.729Z,24.00
2018-03-02T11:30:23.373Z,25.55
2018-03-02T11:32:51.040Z,20.67
2018-03-02T11:35:18.676Z,20.90
2018-03-02T11:37:46.335Z,20.25
2018-03-02T11:40:13.869Z,22.73
2018-03-02T11:42:41.433Z,23.15
2018-03-02T11:45:09.095Z,24.40
2018-03-02T11:47:36.708Z,26.15
2018-03-02T11:50:04.295Z,25.10
2018-03-02T11:52:32.131Z,23.92
2018-03-02T11:54:59.783Z,25.73
2018-03-02T11:57:28.229Z,27.50
2018-03-02T11:59:55.826Z,20.50
2018-03-02T12:02:24.155Z,27.50
2018-03-02T12:04:51.721Z,26.83
2018-03-02T12:07:19.328Z,28.48
2018-03-02T12:09:47.731Z,27.40
2018-03-02T12:12:15.329Z,26.67
2018-03-02T12:14:42.971Z,23.25
2018-03-02T12:17:10.570Z,22.98
2018-03-02T12:19:39.771Z,27.80
2018-03-02T12:22:07.344Z,27.00
2018-03-02T12:24:35.747Z,27.42
2018-03-02T12:27:03.546Z,28.62
2018-03-02T12:29:31.139Z,25.12
2018-03-02T12:31:58.762Z,25.85
2018-03-02T12:34:26.353Z,23.10
2018-03-02T12:36:54.025Z,20.02
2018-03-02T12:39:21.625Z,23.80
2018-03-02T12:41:49.173Z,24.30
2018-03-02T12:44:16.755Z,20.58
2018-03-02T12:46:44.341Z,27.00
2018-03-02T12:49:12.172Z,27.73
2018-03-02T12:51:39.795Z,27.13
2018-03-02T12:54:07.354Z,27.42
2018-03-02T12:56:34.898Z,24.73
2018-03-02T12:59:02.465Z,27.05
2018-03-02T13:01:30.060Z,27.95
2018-03-02T13:03:57.646Z,28.08
2018-03-02T13:06:25.186Z,28.27
2018-03-02T13:08:52.800Z,25.27
2018-03-02T13:11:20.499Z,26.33
2018-03-02T13:13:48.961Z,26.12
2018-03-02T13:16:17.291Z,23.95
2018-03-02T13:18:45.103Z,24.58
2018-03-02T13:21:13.483Z,24.85
2018-03-02T13:23:42.148Z,22.48
2018-03-02T13:26:09.711Z,27.08
2018-03-02T13:28:46.122Z,26.58
2018-03-02T13:31:14.058Z,28.42
2018-03-02T13:33:53.572Z,28.55
2018-03-02T13:36:21.471Z,28.98
2018-03-02T13:38:49.328Z,23.33
2018-03-02T13:41:29.530Z,28.62
2018-03-02T13:43:57.156Z,25.75
2018-03-02T13:46:24.742Z,26.15
2018-03-02T13:49:04.530Z,27.20
2018-03-02T13:51:32.119Z,25.83
2018-03-02T13:54:00.768Z,28.77
2018-03-02T13:56:40.084Z,26.20
2018-03-02T13:59:07.732Z,29.10
2018-03-02T14:01:35.392Z,28.55
2018-03-02T14:04:14.941Z,29.55
2018-03-02T14:06:43.307Z,27.23
2018-03-02T14:09:10.988Z,32.00
2018-03-02T14:11:38.627Z,29.00
2018-03-02T14:14:07.885Z,31.50
2018-03-02T14:16:35.460Z,30.10
2018-03-02T14:19:03.045Z,29.80
2018-03-02T14:21:30.661Z,24.80
2018-03-02T14:23:58.268Z,29.63
2018-03-02T14:26:27.272Z,31.70
2018-03-02T14:28:54.839Z,29.05
2018-03-02T14:31:22.470Z,31.95
2018-03-02T14:33:50.146Z,27.05
2018-03-02T14:36:17.712Z,28.48
2018-03-02T14:38:45.285Z,31.75
2018-03-02T14:41:12.945Z,29.05
2018-03-02T14:43:41.587Z,33.00
2018-03-02T14:46:09.188Z,30.55
2018-03-02T14:48:36.741Z,27.87
2018-03-02T14:51:04.341Z,28.40
2018-03-02T14:53:31.890Z,31.67
2018-03-02T14:55:59.458Z,25.00
2018-03-02T14:58:26.999Z,30.35
2018-03-02T15:00:54.670Z,29.52
2018-03-02T15:03:22.313Z,30.12
2018-03-02T15:05:49.895Z,29.87
2018-03-02T15:08:17.869Z,28.60
2018-03-02T15:10:46.309Z,29.20
2018-03-02T15:13:13.826Z,34.05
2018-03-02T15:15:41.381Z,31.65
2018-03-02T15:18:08.970Z,19.98
2018-03-02T15:20:37.334Z,28.00
2018-03-02T15:23:04.911Z,29.25
2018-03-02T15:25:32.476Z,25.52
2018-03-02T15:28:00.078Z,28.58
2018-03-02T15:30:27.740Z,28.25
2018-03-02T15:32:55.332Z,29.00
2018-03-02T15:35:22.980Z,30.88
2018-03-02T15:37:50.565Z,27.50
2018-03-02T15:40:18.206Z,27.95
2018-03-02T15:42:46.444Z,33.63
2018-03-02T15:45:14.742Z,30.35
2018-03-02T15:47:42.410Z,30.50
2018-03-02T15:50:09.972Z,28.23
2018-03-02T15:52:37.627Z,30.37
2018-03-02T15:55:05.771Z,29.12
2018-03-02T15:57:33.332Z,26.40
2018-03-02T16:00:01.174Z,27.10
2018-03-02T16:02:28.764Z,28.25
2018-03-02T16:04:56.297Z,28.20
2018-03-02T16:07:25.732Z,29.85
2018-03-02T16:09:53.286Z,31.40
2018-03-02T16:12:20.862Z,28.27
2018-03-02T16:14:48.478Z,28.55
2018-03-02T16:17:16.153Z,32.17
2018-03-02T16:19:43.749Z,27.80
2018-03-02T16:22:11.572Z,27.33
2018-03-02T16:24:40.103Z,27.42
2018-03-02T16:27:07.631Z,29.23
2018-03-02T16:29:35.993Z,27.10
2018-03-02T16:32:03.619Z,27.67
2018-03-02T16:34:32.394Z,27.92
2018-03-02T16:36:59.959Z,26.15
2018-03-02T16:39:27.504Z,25.65
2018-03-02T16:41:55.061Z,25.70
2018-03-02T16:44:22.636Z,28.17
2018-03-02T16:46:50.379Z,30.92
2018-03-02T16:49:18.050Z,29.35
2018-03-02T16:51:46.428Z,29.95
2018-03-02T16:54:13.988Z,26.92
2018-03-02T16:56:41.504Z,28.65
2018-03-02T16:59:09.577Z,28.42
2018-03-02T17:01:37.131Z,30.08
2018-03-02T17:04:04.742Z,30.62
2018-03-02T17:06:32.333Z,28.27
2018-03-02T17:08:59.977Z,30.42
2018-03-02T17:11:27.537Z,32.15
2018-03-02T17:13:55.092Z,30.27
2018-03-02T17:16:22.696Z,28.52
2018-03-02T17:18:50.450Z,33.22
2018-03-02T17:21:17.985Z,31.20
2018-03-02T17:23:45.550Z,32.80
2018-03-02T17:26:13.358Z,25.70
2018-03-02T17:28:41.689Z,30.70
2018-03-02T17:31:09.270Z,31.90
2018-03-02T17:33:36.872Z,33.33
2018-03-02T17:36:04.452Z,23.23
2018-03-02T17:38:31.985Z,27.83
2018-03-02T17:41:00.397Z,25.98
2018-03-02T17:43:27.949Z,30.88
2018-03-02T17:45:55.587Z,31.05
2018-03-02T17:48:23.994Z,31.80
2018-03-02T17:50:52.270Z,30.62
2018-03-02T17:53:20.637Z,30.73
2018-03-02T17:55:49.140Z,30.75
2018-03-02T17:58:17.189Z,31.23
2018-03-02T18:00:44.736Z,33.10
2018-03-02T18:03:13.045Z,35.78
2018-03-02T18:05:40.858Z,30.12
2018-03-02T18:08:08.360Z,31.05
2018-03-02T18:10:36.876Z,33.28
2018-03-02T18:13:04.454Z,29.63
2018-03-02T18:15:32.067Z,31.05
2018-03-02T18:17:59.670Z,29.25
2018-03-02T18:20:27.256Z,33.92
2018-03-02T18:22:55.614Z,32.33
2018-03-02T18:25:24.198Z,32.95
2018-03-02T18:27:52.497Z,33.22
2018-03-02T18:30:20.809Z,33.22
2018-03-02T18:32:48.362Z,30.15
2018-03-02T18:35:15.992Z,36.03
2018-03-02T18:37:44.471Z,33.05
2018-03-02T18:40:12.786Z,31.98
2018-03-02T18:42:40.342Z,32.92
2018-03-02T18:45:07.968Z,30.02
2018-03-02T18:47:35.552Z,33.55
2018-03-02T18:50:03.138Z,32.60
2018-03-02T18:52:34.785Z,30.83
2018-03-02T18:55:02.375Z,28.67
2018-03-02T18:57:29.961Z,34.20
2018-03-02T18:59:57.487Z,34.88
2018-03-02T19:02:25.021Z,32.78
2018-03-02T19:04:52.583Z,34.00
2018-03-02T19:07:20.140Z,33.53
2018-03-02T19:09:47.698Z,32.47
2018-03-02T19:12:15.260Z,37.78
2018-03-02T19:14:43.060Z,35.75
2018-03-02T19:17:11.620Z,33.60
2018-03-02T19:19:39.223Z,31.45
2018-03-02T19:22:06.760Z,34.55
2018-03-02T19:24:34.320Z,36.67
2018-03-02T19:27:01.893Z,30.30
2018-03-02T19:29:29.622Z,33.58
2018-03-02T19:31:57.294Z,36.03
2018-03-02T19:34:24.933Z,32.63
2018-03-02T19:36:58.155Z,28.98
2018-03-02T19:39:25.751Z,31.55
2018-03-02T19:41:55.508Z,38.45
2018-03-02T19:44:23.516Z,32.33
2018-03-02T19:46:51.183Z,35.28
2018-03-02T19:49:19.118Z,36.10
2018-03-02T19:51:46.797Z,36.30
2018-03-02T19:54:15.269Z,31.80
2018-03-02T19:56:42.849Z,33.13
2018-03-02T19:59:10.483Z,33.85
2018-03-02T20:01:38.113Z,32.25
2018-03-02T20:04:06.461Z,30.65
2018-03-02T20:06:34.402Z,33.22
2018-03-02T20:09:03.845Z,28.40
2018-03-02T20:11:32.525Z,32.67
2018-03-02T20:14:01.829Z,34.40
2018-03-02T20:16:31.245Z,29.52
2018-03-02T20:18:58.876Z,31.12
2018-03-02T20:21:27.247Z,33.00
2018-03-02T20:23:54.860Z,35.30
2018-03-02T20:26:22.486Z,33.80
2018-03-02T20:28:51.804Z,31.75
2018-03-02T20:31:20.713Z,35.63
2018-03-02T20:33:48.341Z,32.28
2018-03-02T20:36:16.797Z,32.00
2018-03-02T20:38:45.514Z,30.48
2018-03-02T20:41:14.221Z,32.30
2018-03-02T20:43:41.878Z,29.55
2018-03-02T20:46:10.687Z,27.80
2018-03-02T20:48:38.422Z,31.95
2018-03-02T20:51:09.108Z,34.22
2018-03-02T20:53:36.672Z,33.05
2018-03-02T20:56:04.261Z,30.90
2018-03-02T20:58:32.327Z,28.77
2018-03-02T21:00:59.890Z,33.28
2018-03-02T21:03:27.519Z,31.62
2018-03-02T21:05:55.121Z,31.50
2018-03-02T21:08:22.677Z,32.67
2018-03-02T21:10:51.096Z,31.35
2018-03-02T21:13:18.692Z,31.83
2018-03-02T21:15:46.263Z,35.15
2018-03-02T21:18:13.833Z,34.42
2018-03-02T21:20:41.367Z,33.35
2018-03-02T21:23:09.679Z,34.83
2018-03-02T21:25:37.286Z,32.15
2018-03-02T21:28:04.922Z,37.72
2018-03-02T21:30:32.616Z,26.12
2018-03-02T21:33:00.260Z,34.53
2018-03-02T21:35:27.833Z,30.60
2018-03-02T21:37:55.410Z,21.62
2018-03-02T21:40:23.069Z,32.88
2018-03-02T21:42:50.668Z,30.80
2018-03-02T21:45:18.975Z,34.08
2018-03-02T21:47:47.783Z,31.37
2018-03-02T21:50:15.364Z,32.40
2018-03-02T21:52:42.927Z,30.12
2018-03-02T21:55:10.798Z,31.77
2018-03-02T21:57:38.432Z,31.87
2018-03-02T22:00:05.961Z,33.25
2018-03-02T22:02:33.596Z,33.95
2018-03-02T22:05:01.963Z,31.87
2018-03-02T22:07:29.504Z,32.20
2018-03-02T22:09:57.082Z,30.30
2018-03-02T22:12:24.753Z,32.75
2018-03-02T22:14:52.342Z,35.20
2018-03-02T22:17:20.977Z,31.12
2018-03-02T22:19:48.673Z,34.22
2018-03-02T22:22:16.510Z,32.05
2018-03-02T22:24:44.360Z,28.12
2018-03-02T22:27:11.934Z,34.88
2018-03-02T22:29:39.885Z,33.88
2018-03-02T22:32:08.136Z,31.45
2018-03-02T22:34:35.778Z,32.90
2018-03-02T22:37:03.468Z,29.92
2018-03-02T22:39:31.434Z,32.63
2018-03-02T22:41:59.373Z,32.90
2018-03-02T22:44:27.413Z,29.83
2018-03-02T22:46:55.401Z,32.17
2018-03-02T22:49:23.448Z,34.25
2018-03-02T22:51:51.529Z,31.33
2018-03-02T22:54:19.826Z,30.33
2018-03-02T22:56:48.251Z,32.45
2018-03-02T22:59:16.908Z,26.55
2018-03-02T23:01:45.355Z,34.97
2018-03-02T23:04:13.845Z,29.63
2018-03-02T23:06:42.036Z,32.10
2018-03-02T23:09:10.413Z,32.08
2018-03-02T23:11:39.186Z,32.25
2018-03-02T23:14:07.472Z,33.40
2018-03-02T23:16:37.059Z,33.35
2018-03-02T23:19:06.594Z,32.50
2018-03-02T23:21:35.406Z,31.00
2018-03-02T23:24:03.615Z,35.75
2018-03-02T23:26:31.673Z,33.95
2018-03-02T23:28:59.612Z,32.42
2018-03-02T23:31:27.532Z,32.13
2018-03-02T23:33:55.438Z,29.63
2018-03-02T23:36:23.576Z,34.58
2018-03-02T23:38:51.677Z,30.42
2018-03-02T23:41:19.657Z,29.60
2018-03-02T23:43:48.356Z,33.28
2018-03-02T23:46:16.371Z,31.92
2018-03-02T23:48:44.448Z,30.83
2018-03-02T23:51:12.724Z,30.45
2018-03-02T23:53:40.902Z,31.65
2018-03-02T23:56:08.871Z,27.80
2018-03-02T23:58:37.875Z,27.62
